Time;durP1;ratioP1;P1;durP2;ratioP2;P2;SDS_P1;SDS_P2;PMS_P1;PMS_P2;Temp;Humidity;BMP_temperature;BMP_pressure;BME280_temperature;BME280_humidity;BME280_pressure;Samples;Min_cycle;Max_cycle;Signal;HPM_P1;HPM_P2
2022/09/29 00:00:36;;;;;;;13.07;10.20;;;;;;;5.44;96.53;100063.41;5000613;28;20265;-72
2022/09/29 00:03:02;;;;;;;12.07;9.43;;;;;;;5.37;96.67;100063.19;5003240;28;20199;-72
2022/09/29 00:05:27;;;;;;;12.50;9.20;;;;;;;5.33;96.86;100058.84;5001671;28;20702;-72
2022/09/29 00:07:53;;;;;;;13.37;9.43;;;;;;;5.29;96.35;100055.38;5002783;28;20215;-72
2022/09/29 00:10:18;;;;;;;12.20;8.60;;;;;;;5.27;96.94;100067.19;5001549;28;20211;-72
2022/09/29 00:12:44;;;;;;;13.00;10.10;;;;;;;5.21;96.55;100068.69;5000182;28;20191;-72
2022/09/29 00:15:10;;;;;;;12.20;9.37;;;;;;;5.20;95.83;100066.97;5002978;28;20194;-72
2022/09/29 00:17:36;;;;;;;13.10;9.43;;;;;;;5.14;96.02;100060.03;5001766;28;20183;-72
2022/09/29 00:20:01;;;;;;;12.90;9.77;;;;;;;5.15;96.04;100066.00;5001791;28;20249;-72
2022/09/29 00:22:27;;;;;;;13.57;9.17;;;;;;;5.17;96.25;100056.72;4992000;28;20888;-72
2022/09/29 00:24:52;;;;;;;13.20;9.40;;;;;;;5.18;96.22;100061.84;5002088;28;20294;-72
2022/09/29 00:27:18;;;;;;;14.30;9.97;;;;;;;5.15;96.48;100066.84;5003461;28;20179;-72
2022/09/29 00:29:44;;;;;;;13.47;9.43;;;;;;;5.14;96.54;100069.31;5001510;28;20242;-72
2022/09/29 00:32:10;;;;;;;10.57;8.83;;;;;;;5.10;96.45;100068.38;5000498;28;20183;-72
2022/09/29 00:34:35;;;;;;;11.27;8.73;;;;;;;5.05;96.03;100062.31;5000485;28;20558;-72
2022/09/29 00:37:01;;;;;;;11.23;9.47;;;;;;;4.98;96.26;100067.19;5002497;28;20217;-72
2022/09/29 00:39:26;;;;;;;9.37;8.03;;;;;;;4.98;95.82;100060.41;5002903;28;20234;-72
2022/09/29 00:41:51;;;;;;;11.33;8.63;;;;;;;4.91;95.64;100066.13;4999708;28;20200;-72
2022/09/29 00:44:18;;;;;;;12.23;9.60;;;;;;;4.91;96.02;100065.28;5000990;28;20217;-72
2022/09/29 00:47:05;;;;;;;12.83;8.90;;;;;;;4.89;96.24;100066.91;4999750;28;20210;-72
2022/09/29 00:49:33;;;;;;;11.63;8.60;;;;;;;4.84;95.51;100061.69;5001469;28;20644;-72
2022/09/29 00:52:28;;;;;;;10.20;8.47;;;;;;;4.81;95.75;100066.69;5007444;28;20203;-72
2022/09/29 00:55:16;;;;;;;11.40;8.97;;;;;;;4.81;96.04;100063.28;5008012;28;20201;-72
2022/09/29 00:57:57;;;;;;;10.80;8.90;;;;;;;4.81;95.61;100065.81;5024940;28;20199;-71
2022/09/29 01:00:24;;;;;;;11.07;8.93;;;;;;;4.78;95.70;100056.44;5007082;28;20217;-73
2022/09/29 01:03:11;;;;;;;11.83;8.77;;;;;;;4.76;95.17;100057.22;5021838;28;20197;-73
2022/09/29 01:05:47;;;;;;;12.67;9.13;;;;;;;4.78;95.50;100061.53;5008163;28;20229;-73
2022/09/29 01:08:25;;;;;;;12.67;8.80;;;;;;;4.80;95.48;100067.53;5006478;28;20353;-73
2022/09/29 01:10:51;;;;;;;13.53;8.73;;;;;;;4.83;95.88;100064.22;5004610;28;20626;-73
2022/09/29 01:13:17;;;;;;;12.63;9.10;;;;;;;4.89;95.94;100061.84;5005007;28;20282;-73
2022/09/29 01:15:43;;;;;;;12.87;8.83;;;;;;;4.92;96.59;100061.94;5004720;28;20187;-73
2022/09/29 01:18:09;;;;;;;12.27;9.30;;;;;;;4.93;96.73;100064.50;5007295;28;20207;-73
2022/09/29 01:20:51;;;;;;;11.40;8.93;;;;;;;4.93;97.02;100064.50;5007633;23;20644;-76
2022/09/29 01:23:44;;;;;;;10.40;8.30;;;;;;;4.89;97.79;100065.25;4977895;28;20590;-76
2022/09/29 01:26:49;;;;;;;11.13;8.10;;;;;;;4.92;97.48;100064.47;4986491;28;20674;-76
2022/09/29 01:29:39;;;;;;;12.37;8.70;;;;;;;4.91;97.48;100061.06;4986280;28;20238;-76
2022/09/29 01:32:40;;;;;;;9.73;8.20;;;;;;;4.92;97.37;100062.78;4984987;28;20623;-76
2022/09/29 01:35:31;;;;;;;11.00;8.33;;;;;;;4.93;97.70;100063.66;4955939;28;20261;-76
2022/09/29 01:38:25;;;;;;;10.50;8.47;;;;;;;4.90;97.21;100072.03;4968733;28;20199;-76
2022/09/29 01:41:09;;;;;;;12.23;8.53;;;;;;;4.86;97.58;100064.28;4987125;28;20680;-76
2022/09/29 01:43:45;;;;;;;12.53;8.97;;;;;;;4.86;97.81;100061.75;4969367;28;20343;-76
2022/09/29 01:46:19;;;;;;;12.03;9.17;;;;;;;4.85;97.80;100062.56;4970874;28;20218;-76
2022/09/29 01:48:50;;;;;;;8.87;7.50;;;;;;;4.79;97.35;100062.41;4970303;28;20195;-76
2022/09/29 01:51:21;;;;;;;11.07;8.53;;;;;;;4.76;97.43;100058.09;4978052;28;20226;-75
2022/09/29 01:53:54;;;;;;;11.60;8.70;;;;;;;4.73;97.04;100059.66;4970108;28;20254;-76
2022/09/29 01:56:36;;;;;;;9.77;7.43;;;;;;;4.74;96.72;100064.78;4987179;28;20215;-76
2022/09/29 01:59:11;;;;;;;11.83;8.07;;;;;;;4.70;96.62;100065.50;4984519;28;20199;-76
2022/09/29 02:01:42;;;;;;;9.43;7.90;;;;;;;4.70;96.61;100062.13;4983860;28;20281;-76
2022/09/29 02:04:19;;;;;;;11.07;8.50;;;;;;;4.69;96.59;100068.84;4964915;28;20194;-76
2022/09/29 02:06:50;;;;;;;11.37;8.50;;;;;;;4.69;97.07;100068.84;4982431;28;20275;-76
2022/09/29 02:09:23;;;;;;;12.00;8.30;;;;;;;4.66;97.02;100066.25;4968084;28;20188;-77
2022/09/29 02:11:51;;;;;;;11.57;8.90;;;;;;;4.65;97.35;100059.44;4956562;28;20628;-77
2022/09/29 02:14:27;;;;;;;10.97;7.20;;;;;;;4.63;97.39;100063.63;4974784;28;21295;-76
2022/09/29 02:17:09;;;;;;;9.63;8.07;;;;;;;4.60;97.22;100060.97;4983693;28;20195;-77
2022/09/29 02:19:39;;;;;;;11.23;8.63;;;;;;;4.61;97.30;100064.38;4982473;28;20202;-76
2022/09/29 02:22:04;;;;;;;10.20;7.90;;;;;;;4.59;97.21;100068.53;4965815;28;20250;-76
2022/09/29 02:24:31;;;;;;;10.03;8.17;;;;;;;4.58;97.41;100066.81;4968037;28;20235;-77
2022/09/29 02:26:57;;;;;;;13.47;9.47;;;;;;;4.53;97.68;100069.22;4985333;28;20187;-76
2022/09/29 02:29:22;;;;;;;10.30;8.37;;;;;;;4.53;97.49;100063.28;4954804;28;20207;-76
2022/09/29 02:31:48;;;;;;;11.47;8.27;;;;;;;4.49;97.44;100064.88;4984179;28;20628;-75
2022/09/29 02:34:17;;;;;;;10.67;8.00;;;;;;;4.53;96.95;100059.09;4959600;28;20548;-77
2022/09/29 02:37:04;;;;;;;10.43;8.07;;;;;;;4.46;97.60;100066.47;4968622;28;20184;-77
2022/09/29 02:40:17;;;;;;;10.47;8.63;;;;;;;4.49;97.77;100075.00;4986718;28;20192;-76
2022/09/29 02:43:14;;;;;;;11.17;8.70;;;;;;;4.45;97.56;100070.66;4948285;28;20203;-77
2022/09/29 02:45:40;;;;;;;10.07;7.90;;;;;;;4.39;97.36;100069.59;4964029;28;20265;-75
2022/09/29 02:48:23;;;;;;;8.73;7.23;;;;;;;4.42;97.14;100067.19;4981345;28;20655;-77
2022/09/29 02:51:24;;;;;;;13.50;9.43;;;;;;;4.43;97.07;100072.28;4982521;28;20211;-76
2022/09/29 02:54:08;;;;;;;10.57;8.03;;;;;;;4.40;97.04;100067.13;4980383;28;20200;-76
2022/09/29 02:56:45;;;;;;;12.47;8.97;;;;;;;4.47;97.71;100076.63;4979782;28;20199;-77
2022/09/29 02:59:26;;;;;;;13.57;10.27;;;;;;;4.60;99.42;100070.28;4982349;28;20187;-76
2022/09/29 03:01:54;;;;;;;12.60;9.67;;;;;;;4.58;99.16;100082.91;4982344;28;20234;-77
2022/09/29 03:04:21;;;;;;;13.10;9.87;;;;;;;4.54;99.64;100077.66;4978939;28;20226;-77
2022/09/29 03:06:47;;;;;;;13.97;9.10;;;;;;;4.53;99.31;100076.81;4949688;28;20242;-78
2022/09/29 03:09:12;;;;;;;12.10;8.63;;;;;;;4.47;99.93;100089.28;4983412;28;20214;-77
2022/09/29 03:11:38;;;;;;;11.70;8.97;;;;;;;4.46;99.70;100079.13;4971441;28;20709;-76
2022/09/29 03:14:05;;;;;;;13.63;8.73;;;;;;;4.38;99.78;100083.94;4980821;28;20202;-77
2022/09/29 03:16:31;;;;;;;11.13;8.67;;;;;;;4.32;99.77;100078.69;4982228;28;20230;-77
2022/09/29 03:18:56;;;;;;;11.77;8.73;;;;;;;4.28;99.38;100079.41;4982037;28;20226;-75
2022/09/29 03:21:22;;;;;;;11.37;8.33;;;;;;;4.28;98.69;100078.56;4980947;28;20220;-75
2022/09/29 03:23:48;;;;;;;11.27;8.00;;;;;;;4.21;99.01;100091.81;4981704;28;20648;-75
2022/09/29 03:26:13;;;;;;;10.80;8.60;;;;;;;4.19;98.34;100086.69;4965399;28;20211;-76
2022/09/29 03:28:39;;;;;;;11.23;8.53;;;;;;;4.18;98.68;100086.69;4982220;28;20344;-74
2022/09/29 03:31:05;;;;;;;11.03;9.03;;;;;;;4.16;97.85;100088.28;4981788;28;20787;-75
2022/09/29 03:33:31;;;;;;;10.17;8.17;;;;;;;4.16;97.98;100078.16;4963422;28;20195;-75
2022/09/29 03:35:57;;;;;;;11.70;8.47;;;;;;;4.15;97.54;100081.50;4981214;28;20176;-75
2022/09/29 03:38:22;;;;;;;13.63;9.50;;;;;;;4.17;98.08;100078.22;4982524;28;20634;-77
2022/09/29 03:40:47;;;;;;;12.30;8.90;;;;;;;4.15;97.76;100077.28;4979656;28;20866;-76
2022/09/29 03:43:13;;;;;;;13.00;8.60;;;;;;;4.15;97.55;100082.34;4963806;28;20187;-77
2022/09/29 03:45:48;;;;;;;12.13;9.00;;;;;;;4.13;97.95;100086.50;4966470;28;20642;-75
2022/09/29 03:48:13;;;;;;;12.80;8.00;;;;;;;4.14;97.72;100090.75;4980311;28;20660;-77
2022/09/29 03:50:38;;;;;;;11.60;8.47;;;;;;;4.13;97.73;100091.59;4970106;28;20241;-74
2022/09/29 03:53:04;;;;;;;10.93;8.13;;;;;;;4.12;97.83;100100.00;4968374;28;20188;-77
2022/09/29 03:55:29;;;;;;;10.03;8.00;;;;;;;4.05;97.43;100092.16;4981740;28;20190;-76
2022/09/29 03:57:54;;;;;;;12.43;7.80;;;;;;;4.05;98.11;100094.69;4971148;28;20219;-76
2022/09/29 04:00:20;;;;;;;10.60;7.40;;;;;;;4.06;98.01;100092.22;4982036;28;21939;-76
2022/09/29 04:02:45;;;;;;;10.30;6.93;;;;;;;4.02;97.47;100097.09;4985439;28;20200;-76
2022/09/29 04:05:11;;;;;;;8.07;7.20;;;;;;;4.01;97.49;100092.88;4982871;28;20219;-76
2022/09/29 04:07:36;;;;;;;11.60;7.97;;;;;;;3.99;97.69;100100.41;4982810;28;20188;-76
2022/09/29 04:10:02;;;;;;;10.30;7.67;;;;;;;3.95;97.19;100097.72;4979769;28;20669;-76
2022/09/29 04:12:28;;;;;;;9.27;7.60;;;;;;;3.91;97.04;100106.88;4983389;28;20629;-76
2022/09/29 04:14:54;;;;;;;12.20;8.67;;;;;;;3.92;97.34;100105.22;4969390;28;20211;-76
2022/09/29 04:17:20;;;;;;;12.67;8.90;;;;;;;3.92;97.81;100111.13;4980177;28;20749;-76
2022/09/29 04:19:46;;;;;;;13.27;8.83;;;;;;;3.93;97.77;100112.00;4964035;28;20207;-76
2022/09/29 04:22:15;;;;;;;11.80;8.50;;;;;;;3.94;97.49;100113.72;4984652;28;20214;-76
2022/09/29 04:24:41;;;;;;;11.77;9.07;;;;;;;3.91;98.15;100114.47;4969807;28;20243;-76
2022/09/29 04:27:06;;;;;;;9.00;7.37;;;;;;;3.88;97.61;100111.84;4985790;28;20715;-76
2022/09/29 04:29:31;;;;;;;10.97;8.73;;;;;;;3.88;98.22;100109.31;4980999;28;20188;-76
2022/09/29 04:31:57;;;;;;;9.83;8.43;;;;;;;3.85;98.35;100114.28;4970188;28;20223;-76
2022/09/29 04:34:22;;;;;;;10.17;7.77;;;;;;;3.87;98.33;100115.16;4984045;28;20195;-75
2022/09/29 04:36:48;;;;;;;13.43;9.00;;;;;;;3.93;98.21;100128.06;4981189;28;20848;-77
2022/09/29 04:39:13;;;;;;;12.53;9.27;;;;;;;4.00;98.82;100124.06;4982339;28;20664;-76
2022/09/29 04:41:40;;;;;;;13.27;9.97;;;;;;;4.04;98.85;100130.94;4984676;28;20204;-76
2022/09/29 04:44:05;;;;;;;13.90;9.53;;;;;;;4.03;98.99;100127.56;4981727;28;20726;-76
2022/09/29 04:46:31;;;;;;;13.50;9.40;;;;;;;4.02;98.72;100123.31;4983937;28;20231;-75
2022/09/29 04:48:56;;;;;;;15.53;10.00;;;;;;;4.04;99.77;100119.13;4983179;28;20184;-76
2022/09/29 04:51:22;;;;;;;17.40;11.47;;;;;;;4.09;99.41;100129.44;4960097;28;20293;-76
2022/09/29 04:53:47;;;;;;;14.57;10.17;;;;;;;4.09;100.00;100130.28;4983875;28;20194;-76
2022/09/29 04:56:13;;;;;;;15.27;10.03;;;;;;;4.01;99.85;100126.63;4982903;28;20269;-76
2022/09/29 04:58:38;;;;;;;16.80;10.27;;;;;;;4.04;100.00;100138.53;4964908;28;20190;-76
2022/09/29 05:01:09;;;;;;;14.43;9.33;;;;;;;3.98;100.00;100128.19;4979198;28;20594;-77
2022/09/29 05:03:34;;;;;;;13.30;9.27;;;;;;;3.99;99.73;100130.78;4965679;28;20200;-76
2022/09/29 05:06:00;;;;;;;14.13;8.90;;;;;;;3.94;100.00;100133.97;4983057;28;20215;-76
2022/09/29 05:08:25;;;;;;;11.27;8.83;;;;;;;3.93;100.00;100135.66;4985629;28;20803;-76
2022/09/29 05:10:51;;;;;;;12.53;8.90;;;;;;;3.95;99.86;100135.72;4977790;28;20216;-76
2022/09/29 05:13:16;;;;;;;11.17;8.40;;;;;;;3.97;99.13;100136.63;4965217;28;20184;-76
2022/09/29 05:15:42;;;;;;;12.47;8.60;;;;;;;3.99;99.06;100138.38;4970402;28;20235;-76
2022/09/29 05:18:07;;;;;;;14.13;10.47;;;;;;;4.06;99.67;100137.78;4979866;28;20197;-76
2022/09/29 05:20:32;;;;;;;17.33;11.13;;;;;;;4.13;99.66;100146.44;4972043;28;20226;-76
2022/09/29 05:22:58;;;;;;;12.87;9.43;;;;;;;4.14;99.83;100140.56;4988633;28;20192;-76
2022/09/29 05:25:26;;;;;;;14.73;10.20;;;;;;;4.13;99.61;100144.78;4971284;28;20251;-76
2022/09/29 05:27:52;;;;;;;14.13;10.13;;;;;;;4.14;99.68;100138.88;4975558;28;20192;-76
2022/09/29 05:30:17;;;;;;;13.97;9.60;;;;;;;4.15;100.00;100149.91;4983049;28;20203;-75
2022/09/29 05:32:43;;;;;;;15.33;9.73;;;;;;;4.18;100.00;100143.25;4980553;28;20200;-76
2022/09/29 05:35:09;;;;;;;17.30;10.07;;;;;;;4.27;100.00;100142.69;4956332;28;20176;-76
2022/09/29 05:37:34;;;;;;;14.20;10.20;;;;;;;4.30;100.00;100145.31;4988304;28;20188;-76
2022/09/29 05:40:00;;;;;;;13.23;10.00;;;;;;;4.31;100.00;100147.03;4970703;28;20200;-76
2022/09/29 05:42:26;;;;;;;14.83;10.20;;;;;;;4.33;100.00;100153.03;4988366;28;20196;-76
2022/09/29 05:44:52;;;;;;;16.50;9.83;;;;;;;4.36;100.00;100156.53;4963782;28;20216;-77
2022/09/29 05:47:17;;;;;;;12.83;9.90;;;;;;;4.41;100.00;100152.47;4966560;28;20199;-76
2022/09/29 05:49:43;;;;;;;13.57;9.30;;;;;;;4.44;100.00;100150.03;4966093;28;20196;-77
2022/09/29 05:52:08;;;;;;;14.73;9.50;;;;;;;4.52;100.00;100152.81;4983999;28;20412;-76
2022/09/29 05:54:34;;;;;;;17.10;10.07;;;;;;;4.61;100.00;100143.81;4964867;28;20225;-76
2022/09/29 05:56:59;;;;;;;13.17;9.57;;;;;;;4.64;100.00;100146.44;4965229;28;20290;-77
2022/09/29 05:59:25;;;;;;;13.40;9.60;;;;;;;4.71;100.00;100143.31;4983738;28;20225;-76
2022/09/29 06:01:50;;;;;;;16.07;10.03;;;;;;;4.79;100.00;100141.84;4981686;28;20211;-76
2022/09/29 06:04:16;;;;;;;16.40;11.90;;;;;;;4.94;100.00;100137.25;4964307;28;22116;-76
2022/09/29 06:06:42;;;;;;;34.40;21.93;;;;;;;5.09;100.00;100144.44;4963379;28;20199;-76
2022/09/29 06:09:08;;;;;;;33.17;22.30;;;;;;;5.19;100.00;100133.75;4967729;28;20215;-76
2022/09/29 06:11:34;;;;;;;40.87;27.90;;;;;;;5.31;100.00;100142.59;4980524;28;20213;-77
2022/09/29 06:14:01;;;;;;;33.20;23.37;;;;;;;5.40;100.00;100147.94;4983884;28;20196;-76
2022/09/29 06:16:28;;;;;;;21.60;14.70;;;;;;;5.54;100.00;100145.75;4973891;28;20224;-78
2022/09/29 06:18:54;;;;;;;18.83;13.83;;;;;;;5.62;100.00;100147.69;4951159;28;20199;-77
2022/09/29 06:21:25;;;;;;;21.83;15.07;;;;;;;5.76;100.00;100151.47;4964798;28;20592;-77
2022/09/29 06:23:53;;;;;;;30.37;19.67;;;;;;;5.84;100.00;100144.94;4972045;28;20258;-77
2022/09/29 06:26:20;;;;;;;24.27;17.67;;;;;;;5.94;100.00;100151.97;4966936;28;20294;-76
2022/09/29 06:28:46;;;;;;;33.40;20.90;;;;;;;6.08;100.00;100150.66;4976974;28;20678;-77
2022/09/29 06:31:15;;;;;;;31.60;20.10;;;;;;;6.23;100.00;100145.13;4988908;28;20207;-76
2022/09/29 06:33:41;;;;;;;26.40;18.03;;;;;;;6.38;100.00;100151.44;4968127;28;20180;-77
2022/09/29 06:39:08;;;;;;;26.70;17.37;;;;;;;6.63;100.00;100146.09;4970588;28;20222;-77
2022/09/29 06:41:34;;;;;;;26.60;17.37;;;;;;;6.84;100.00;100151.72;4967710;28;20215;-77
2022/09/29 06:44:00;;;;;;;26.53;17.03;;;;;;;6.98;100.00;100152.00;4981319;28;20672;-77
2022/09/29 06:46:26;;;;;;;23.63;16.70;;;;;;;7.11;100.00;100154.00;4986144;28;20223;-75
2022/09/29 06:48:53;;;;;;;25.37;16.00;;;;;;;7.31;100.00;100151.06;4967693;28;20203;-76
2022/09/29 06:51:21;;;;;;;25.40;16.47;;;;;;;7.35;100.00;100157.94;4986158;28;20207;-76
2022/09/29 06:53:47;;;;;;;22.40;15.60;;;;;;;7.43;100.00;100153.00;4965154;28;20614;-77
2022/09/29 06:56:13;;;;;;;24.30;15.90;;;;;;;7.59;100.00;100162.66;4981504;28;20267;-77
2022/09/29 06:58:39;;;;;;;23.13;15.60;;;;;;;7.50;98.93;100163.31;4982097;28;20283;-77
2022/09/29 07:01:05;;;;;;;21.00;15.50;;;;;;;7.77;99.01;100156.25;4978572;28;20211;-77
2022/09/29 07:03:31;;;;;;;21.90;15.13;;;;;;;8.12;97.77;100156.88;4969151;28;20187;-78
2022/09/29 07:06:01;;;;;;;19.83;15.07;;;;;;;7.81;98.71;100159.69;4969092;28;20745;-76
2022/09/29 07:08:27;;;;;;;22.80;15.87;;;;;;;7.86;97.54;100164.06;4978945;28;20323;-76
2022/09/29 07:10:53;;;;;;;20.83;14.77;;;;;;;7.90;98.04;100160.75;4964068;28;20226;-77
2022/09/29 07:13:18;;;;;;;21.17;15.70;;;;;;;8.14;96.37;100166.28;4955065;28;20196;-76
2022/09/29 07:15:46;;;;;;;25.70;17.13;;;;;;;8.20;97.00;100171.50;4963725;28;20192;-76
2022/09/29 07:18:12;;;;;;;20.37;15.20;;;;;;;8.20;96.99;100176.63;4982719;28;20859;-76
2022/09/29 07:20:39;;;;;;;21.93;16.53;;;;;;;8.39;95.67;100165.91;4980986;28;20668;-77
2022/09/29 07:23:06;;;;;;;21.40;15.80;;;;;;;8.52;95.91;100165.28;4965989;28;20287;-77
2022/09/29 07:25:33;;;;;;;22.90;16.20;;;;;;;8.68;95.13;100172.34;4982975;28;20204;-76
2022/09/29 07:27:59;;;;;;;26.97;16.80;;;;;;;8.90;94.78;100168.44;4965782;28;20689;-77
2022/09/29 07:30:26;;;;;;;21.97;15.77;;;;;;;9.00;94.77;100163.50;4984770;28;20224;-76
2022/09/29 07:32:53;;;;;;;20.57;15.73;;;;;;;9.25;94.28;100160.44;4963315;28;20187;-77
2022/09/29 07:35:19;;;;;;;23.60;18.07;;;;;;;9.31;94.20;100163.06;4978525;28;20686;-77
2022/09/29 07:37:51;;;;;;;22.60;16.53;;;;;;;9.55;93.63;100167.63;4979335;28;20239;-77
2022/09/29 07:40:16;;;;;;;26.23;18.50;;;;;;;9.92;92.91;100157.84;4967445;28;20211;-76
2022/09/29 07:42:41;;;;;;;21.53;17.07;;;;;;;9.80;92.18;100169.63;4952775;28;20188;-76
2022/09/29 07:47:32;;;;;;;21.80;16.50;;;;;;;10.47;91.09;100169.50;4961612;28;20235;-75
2022/09/29 07:49:58;;;;;;;19.40;16.07;;;;;;;10.78;89.42;100172.31;4944301;28;20225;-77
2022/09/29 07:52:23;;;;;;;18.97;15.17;;;;;;;10.73;89.01;100166.31;4942593;28;20201;-77
2022/09/29 07:54:49;;;;;;;21.20;16.57;;;;;;;10.99;88.65;100167.38;4943206;28;20201;-76
2022/09/29 07:57:14;;;;;;;20.63;16.47;;;;;;;11.26;87.72;100169.22;4958334;28;20227;-75
2022/09/29 07:59:40;;;;;;;17.20;14.60;;;;;;;11.12;87.41;100164.03;4944331;28;20209;-76
2022/09/29 08:02:06;;;;;;;18.80;15.20;;;;;;;11.58;86.09;100163.44;4945120;28;20556;-77
2022/09/29 08:04:32;;;;;;;18.37;14.80;;;;;;;11.71;85.17;100166.91;4943311;29;20236;-76
2022/09/29 08:06:57;;;;;;;17.20;15.00;;;;;;;11.50;85.86;100164.22;4943660;29;20225;-77
2022/09/29 08:09:23;;;;;;;22.00;16.83;;;;;;;11.84;85.61;100166.97;4961355;28;20209;-76
2022/09/29 08:11:49;;;;;;;19.30;15.40;;;;;;;12.14;84.50;100177.31;4945905;28;20185;-75
2022/09/29 08:14:14;;;;;;;19.83;14.70;;;;;;;12.33;83.64;100167.94;4944783;28;20185;-77
2022/09/29 08:16:39;;;;;;;19.03;15.17;;;;;;;12.11;83.75;100168.72;4943596;28;20196;-76
2022/09/29 08:19:06;;;;;;;19.03;14.77;;;;;;;12.26;84.24;100173.91;4945166;28;20883;-75
2022/09/29 08:21:35;;;;;;;16.30;14.57;;;;;;;12.80;82.68;100168.78;4960076;28;20236;-76
2022/09/29 08:24:03;;;;;;;18.87;16.03;;;;;;;13.11;81.85;100161.97;4943047;29;20215;-76
2022/09/29 08:26:31;;;;;;;20.30;15.37;;;;;;;13.62;80.55;100160.06;4958031;28;20221;-76
2022/09/29 08:28:56;;;;;;;18.40;14.33;;;;;;;14.05;78.27;100166.72;4943188;28;20770;-75
2022/09/29 08:31:23;;;;;;;16.80;14.33;;;;;;;14.48;76.86;100167.34;4942962;28;20240;-76
2022/09/29 08:33:50;;;;;;;16.10;14.27;;;;;;;14.48;74.29;100165.63;4951028;28;20220;-75
2022/09/29 08:36:17;;;;;;;15.37;13.83;;;;;;;13.88;76.69;100167.69;4951278;28;20599;-74
2022/09/29 08:39:01;;;;;;;15.67;13.40;;;;;;;13.79;78.17;100178.00;4946024;28;20220;-74
2022/09/29 08:41:27;;;;;;;18.07;13.43;;;;;;;13.36;79.01;100182.47;4946250;28;20190;-74
2022/09/29 08:44:03;;;;;;;17.07;14.73;;;;;;;13.34;81.40;100186.75;4943157;29;20655;-76
2022/09/29 08:46:52;;;;;;;17.10;14.23;;;;;;;13.42;79.66;100185.03;4944107;29;20216;-78
2022/09/29 08:49:23;;;;;;;17.20;14.53;;;;;;;13.66;79.97;100184.06;4945009;29;20217;-75
2022/09/29 08:51:55;;;;;;;16.57;14.27;;;;;;;14.00;78.41;100189.06;4945869;28;20189;-77
2022/09/29 08:54:28;;;;;;;16.57;14.10;;;;;;;14.04;78.14;100195.91;4944027;28;20543;-76
2022/09/29 08:56:54;;;;;;;14.80;13.27;;;;;;;13.81;76.84;100192.59;4945478;28;20224;-76
2022/09/29 08:59:24;;;;;;;13.87;12.37;;;;;;;13.87;76.76;100195.16;4941670;28;20219;-75
2022/09/29 09:02:37;;;;;;;13.30;11.50;;;;;;;14.07;76.38;100189.88;4944129;28;20185;-77
2022/09/29 09:05:29;;;;;;;13.50;11.60;;;;;;;13.99;74.80;100191.66;4889838;28;20258;-76
2022/09/29 09:08:09;;;;;;;12.13;10.93;;;;;;;14.66;72.77;100192.97;4941885;28;20219;-74
2022/09/29 09:10:39;;;;;;;13.20;11.43;;;;;;;15.09;71.72;100190.03;4949395;28;20686;-76
2022/09/29 09:13:23;;;;;;;12.80;9.67;;;;;;;15.82;67.43;100190.97;4953409;29;20196;-77
2022/09/29 09:16:14;;;;;;;12.57;9.50;;;;;;;16.21;67.03;100195.59;4949086;28;20777;-77
2022/09/29 09:18:54;;;;;;;12.43;10.13;;;;;;;15.80;67.04;100197.88;4947704;28;20670;-76
2022/09/29 09:21:35;;;;;;;11.33;9.57;;;;;;;15.42;68.10;100200.03;4946287;29;20216;-76
2022/09/29 09:24:27;;;;;;;10.73;9.63;;;;;;;15.31;69.20;100199.25;4947290;28;20201;-76
2022/09/29 09:26:53;;;;;;;10.63;9.07;;;;;;;15.44;67.94;100195.72;4962746;28;20283;-76
2022/09/29 09:29:33;;;;;;;10.67;9.43;;;;;;;15.79;67.96;100193.56;4948130;28;20684;-76
2022/09/29 09:32:02;;;;;;;10.97;9.60;;;;;;;16.40;66.13;100189.31;4953727;28;20566;-76
2022/09/29 09:34:37;;;;;;;10.40;9.23;;;;;;;16.23;65.19;100193.00;4965736;28;20352;-76
2022/09/29 09:37:20;;;;;;;9.97;8.57;;;;;;;17.31;63.10;100189.53;4953451;28;20239;-76
2022/09/29 09:40:02;;;;;;;9.87;8.87;;;;;;;18.28;59.74;100183.25;4954089;28;20332;-76
2022/09/29 09:42:36;;;;;;;9.50;8.43;;;;;;;20.24;53.68;100180.66;4952634;28;20304;-76
2022/09/29 09:45:05;;;;;;;8.95;7.93;;;;;;;20.72;52.77;100179.09;4954837;28;20811;-76
2022/09/29 09:47:39;;;;;;;10.73;9.10;;;;;;;19.39;53.06;100186.53;4957029;28;20201;-75
2022/09/29 09:50:14;;;;;;;10.30;8.68;;;;;;;19.78;52.73;100187.19;4951564;28;20217;-76
2022/09/29 09:52:57;;;;;;;10.50;8.50;;;;;;;19.96;52.53;100181.47;4951280;28;20674;-76
2022/09/29 09:55:27;;;;;;;10.10;9.07;;;;;;;19.74;52.40;100188.16;4956050;28;20194;-77
2022/09/29 09:58:27;;;;;;;10.02;9.07;;;;;;;21.03;50.15;100174.63;4958653;28;20177;-76
2022/09/29 10:01:06;;;;;;;9.50;8.45;;;;;;;21.22;49.01;100180.91;4952178;29;20216;-75
2022/09/29 10:03:32;;;;;;;8.50;7.43;;;;;;;22.74;45.60;100177.75;4951103;28;20228;-77
2022/09/29 10:05:58;;;;;;;13.20;8.82;;;;;;;22.21;46.26;100179.84;4957895;28;20919;-77
2022/09/29 10:08:38;;;;;;;8.95;8.05;;;;;;;21.82;46.60;100183.94;4956280;28;20189;-77
2022/09/29 10:11:15;;;;;;;9.35;8.40;;;;;;;22.45;44.56;100183.28;4952342;29;20201;-76
2022/09/29 10:13:40;;;;;;;9.02;8.10;;;;;;;23.83;42.08;100186.97;4955452;28;20180;-76
2022/09/29 10:16:16;;;;;;;8.18;7.38;;;;;;;24.20;41.77;100180.00;4953425;28;20653;-73
2022/09/29 10:18:45;;;;;;;8.45;7.65;;;;;;;23.08;43.18;100183.28;4960682;28;20196;-76
2022/09/29 10:21:40;;;;;;;8.15;7.32;;;;;;;24.45;40.32;100180.53;4951056;28;20219;-75
2022/09/29 10:24:21;;;;;;;8.30;7.28;;;;;;;25.14;40.23;100184.97;4952039;28;20211;-77
2022/09/29 10:26:49;;;;;;;9.52;8.52;;;;;;;25.41;38.73;100182.78;4958965;28;20664;-77
2022/09/29 10:29:37;;;;;;;9.43;8.52;;;;;;;25.31;38.75;100190.25;4971115;28;20189;-74
2022/09/29 10:32:13;;;;;;;9.55;8.55;;;;;;;24.95;39.03;100183.38;4944182;28;20189;-71
2022/09/29 10:34:46;;;;;;;8.75;7.93;;;;;;;27.62;34.45;100177.09;4956950;28;20200;-76
2022/09/29 10:37:21;;;;;;;8.82;7.93;;;;;;;27.30;33.66;100188.72;4949557;29;20280;-72
2022/09/29 10:39:49;;;;;;;8.48;7.68;;;;;;;28.60;34.23;100181.44;4954262;28;20296;-75
2022/09/29 10:42:19;;;;;;;9.00;8.10;;;;;;;29.58;32.11;100178.31;4952879;28;20224;-74
2022/09/29 10:44:50;;;;;;;9.43;8.55;;;;;;;30.34;30.56;100179.88;4959543;28;20220;-74
2022/09/29 10:47:16;;;;;;;10.38;9.38;;;;;;;29.17;32.06;100185.53;4957607;28;20201;-74
2022/09/29 10:49:42;;;;;;;9.45;8.55;;;;;;;28.14;33.35;100187.94;4951181;28;20569;-76
2022/09/29 10:52:24;;;;;;;8.80;8.00;;;;;;;26.84;34.97;100192.31;4963256;28;20638;-77
2022/09/29 10:55:04;;;;;;;14.45;10.23;;;;;;;23.80;41.66;100205.44;4946773;29;20185;-76
2022/09/29 10:57:32;;;;;;;11.20;10.10;;;;;;;23.49;40.43;100210.28;4946565;29;20263;-75
2022/09/29 10:59:58;;;;;;;11.18;9.77;;;;;;;22.23;44.42;100218.09;4949243;29;20209;-75
2022/09/29 11:02:33;;;;;;;11.80;10.60;;;;;;;20.20;48.47;100227.56;4951154;28;20240;-75
2022/09/29 11:05:02;;;;;;;12.63;10.20;;;;;;;19.06;51.84;100228.94;4950507;28;20205;-79
2022/09/29 11:07:30;;;;;;;13.00;11.00;;;;;;;18.97;52.16;100231.75;4953031;28;20197;-76
2022/09/29 11:09:56;;;;;;;11.87;10.17;;;;;;;18.82;53.87;100233.84;4956617;28;20239;-76
2022/09/29 11:12:30;;;;;;;13.07;10.70;;;;;;;18.05;55.59;100235.56;4953986;28;20283;-75
2022/09/29 11:14:57;;;;;;;11.57;10.37;;;;;;;17.92;57.11;100235.84;4958369;28;20295;-74
2022/09/29 11:17:39;;;;;;;13.40;11.50;;;;;;;17.21;59.28;100247.50;4955022;28;20612;-76
2022/09/29 11:20:10;;;;;;;12.40;11.07;;;;;;;16.47;61.07;100253.00;4951235;28;20216;-76
2022/09/29 11:22:54;;;;;;;12.30;10.77;;;;;;;16.24;63.03;100256.72;4952811;28;20193;-76
2022/09/29 11:25:39;;;;;;;13.83;11.10;;;;;;;16.99;60.43;100247.91;4956477;28;20323;-77
2022/09/29 11:28:19;;;;;;;13.40;10.90;;;;;;;17.49;59.28;100245.31;4959560;28;20692;-77
2022/09/29 11:31:12;;;;;;;10.10;8.97;;;;;;;18.54;54.54;100246.63;4955295;28;20325;-77
2022/09/29 11:33:56;;;;;;;10.47;9.37;;;;;;;19.02;55.02;100244.63;4951680;28;20601;-76
2022/09/29 11:36:36;;;;;;;11.33;9.40;;;;;;;19.70;51.96;100239.38;4958640;28;20717;-75
2022/09/29 11:39:16;;;;;;;11.57;9.40;;;;;;;19.66;52.40;100245.56;4951384;28;20660;-75
2022/09/29 11:42:17;;;;;;;12.97;10.53;;;;;;;17.53;57.68;100253.00;4958357;28;20196;-76